Time;durP1;ratioP1;P1;durP2;ratioP2;P2;SDS_P1;SDS_P2;PMS_P1;PMS_P2;Temp;Humidity;BMP_temperature;BMP_pressure;BME280_temperature;BME280_humidity;BME280_pressure;Samples;Min_cycle;Max_cycle;Signal;HPM_P1;HPM_P2
2022/11/27 00:01:55;;;;;;;;;;;21.70;68.50;;;;;;1568821;75;656;-58
2022/11/27 00:03:57;;;;;;;;;;;21.60;68.50;;;;;;1560415;75;535;-59
2022/11/27 00:05:58;;;;;;;;;;;21.60;68.50;;;;;;1567628;75;617;-58
2022/11/27 00:08:00;;;;;;;;;;;21.60;68.40;;;;;;1562810;75;1126;-58
2022/11/27 00:10:02;;;;;;;;;;;21.60;68.40;;;;;;1563587;75;1357;-58
2022/11/27 00:12:04;;;;;;;;;;;21.60;68.50;;;;;;1561061;75;1920;-58
2022/11/27 00:14:06;;;;;;;;;;;21.60;68.50;;;;;;1561980;75;679;-58
2022/11/27 00:16:08;;;;;;;;;;;21.60;68.50;;;;;;1564742;75;728;-59
2022/11/27 00:18:10;;;;;;;;;;;21.70;68.60;;;;;;1569320;74;1090;-58
2022/11/27 00:20:12;;;;;;;;;;;21.60;68.50;;;;;;1569244;75;685;-58
2022/11/27 00:22:14;;;;;;;;;;;21.60;68.50;;;;;;1556899;75;703;-58
2022/11/27 00:24:16;;;;;;;;;;;21.60;68.40;;;;;;1563802;75;670;-58
2022/11/27 00:26:18;;;;;;;;;;;21.60;68.50;;;;;;1565473;75;675;-58
2022/11/27 00:28:20;;;;;;;;;;;21.60;68.50;;;;;;1578811;74;1234;-58
2022/11/27 00:30:22;;;;;;;;;;;21.60;68.50;;;;;;1558666;75;661;-59
2022/11/27 00:32:24;;;;;;;;;;;21.60;68.60;;;;;;1560072;75;1946;-58
2022/11/27 00:34:25;;;;;;;;;;;21.60;68.60;;;;;;1559379;75;663;-58
2022/11/27 00:36:28;;;;;;;;;;;21.60;68.70;;;;;;1561860;75;671;-58
2022/11/27 00:38:29;;;;;;;;;;;21.60;68.80;;;;;;1565306;75;1133;-58
2022/11/27 00:40:31;;;;;;;;;;;21.70;68.90;;;;;;1564622;75;671;-58
2022/11/27 00:42:33;;;;;;;;;;;21.60;68.90;;;;;;1570571;75;677;-58
2022/11/27 00:44:35;;;;;;;;;;;21.60;68.90;;;;;;1573016;75;673;-58
2022/11/27 00:46:37;;;;;;;;;;;21.70;69.00;;;;;;1562876;75;602;-58
2022/11/27 00:48:39;;;;;;;;;;;21.60;69.10;;;;;;1562334;75;1179;-58
2022/11/27 00:50:41;;;;;;;;;;;21.60;69.10;;;;;;1563093;75;1942;-58
2022/11/27 00:52:42;;;;;;;;;;;21.60;69.20;;;;;;1565129;75;682;-57
2022/11/27 00:54:44;;;;;;;;;;;21.60;69.20;;;;;;1561362;75;563;-58
2022/11/27 00:56:46;;;;;;;;;;;21.60;69.20;;;;;;1564754;75;713;-58
2022/11/27 00:58:48;;;;;;;;;;;21.70;69.40;;;;;;1563847;75;1130;-57
2022/11/27 01:01:00;;;;;;;;;;;21.70;69.30;;;;;;1565778;75;675;-57
2022/11/27 01:03:02;;;;;;;;;;;21.60;69.30;;;;;;1562132;75;685;-58
2022/11/27 01:05:04;;;;;;;;;;;21.70;69.30;;;;;;1565019;75;669;-58
2022/11/27 01:07:05;;;;;;;;;;;21.60;69.20;;;;;;1565729;75;1392;-59
2022/11/27 01:09:07;;;;;;;;;;;21.60;69.20;;;;;;1562508;75;1078;-58
2022/11/27 01:11:13;;;;;;;;;;;21.70;69.40;;;;;;1562979;75;1942;-59
2022/11/27 01:13:15;;;;;;;;;;;21.70;69.40;;;;;;1552880;75;642;-59
2022/11/27 01:15:17;;;;;;;;;;;21.70;69.30;;;;;;1561838;75;723;-59
2022/11/27 01:17:19;;;;;;;;;;;21.70;69.20;;;;;;1579560;75;620;-58
2022/11/27 01:19:20;;;;;;;;;;;21.70;69.20;;;;;;1556899;74;1148;-58
2022/11/27 01:21:22;;;;;;;;;;;21.60;69.20;;;;;;1560284;75;660;-58
2022/11/27 01:23:24;;;;;;;;;;;21.60;69.20;;;;;;1579047;75;659;-58
2022/11/27 01:25:26;;;;;;;;;;;21.60;69.20;;;;;;1565131;70;228431;-67
2022/11/27 01:27:28;;;;;;;;;;;21.70;69.40;;;;;;1574204;74;688;-65
2022/11/27 01:29:30;;;;;;;;;;;21.70;69.40;;;;;;1576320;74;751;-65
2022/11/27 01:31:32;;;;;;;;;;;21.70;69.40;;;;;;1581834;74;1929;-65
2022/11/27 01:33:34;;;;;;;;;;;21.60;69.30;;;;;;1578235;74;696;-65
2022/11/27 01:35:36;;;;;;;;;;;21.70;69.40;;;;;;1561160;74;1195;-65
2022/11/27 01:37:38;;;;;;;;;;;21.70;69.30;;;;;;1555955;74;661;-66
2022/11/27 01:39:40;;;;;;;;;;;21.70;69.40;;;;;;1557917;74;646;-65
2022/11/27 01:41:41;;;;;;;;;;;21.70;69.40;;;;;;1562779;75;720;-65
2022/11/27 01:43:44;;;;;;;;;;;21.70;69.40;;;;;;1552886;74;723;-65
2022/11/27 01:45:46;;;;;;;;;;;21.70;69.40;;;;;;1561150;74;1168;-65
2022/11/27 01:47:52;;;;;;;;;;;21.70;69.40;;;;;;1564986;74;627;-66
2022/11/27 01:49:55;;;;;;;;;;;21.70;69.30;;;;;;1567422;74;684;-65
2022/11/27 01:51:58;;;;;;;;;;;21.70;69.30;;;;;;1558128;74;1930;-66
2022/11/27 01:54:00;;;;;;;;;;;21.70;69.20;;;;;;1558016;74;1511;-65
2022/11/27 01:56:04;;;;;;;;;;;21.60;69.20;;;;;;1566101;74;1164;-66
2022/11/27 01:58:16;;;;;;;;;;;21.70;69.20;;;;;;1567531;76;1645;-66
2022/11/27 02:00:19;;;;;;;;;;;21.70;69.20;;;;;;1567743;74;709;-64
2022/11/27 02:02:21;;;;;;;;;;;21.70;69.20;;;;;;1566861;74;636;-64
2022/11/27 02:04:23;;;;;;;;;;;21.70;69.10;;;;;;1561546;74;1689;-64
2022/11/27 02:06:25;;;;;;;;;;;21.70;69.20;;;;;;1565667;74;680;-65
2022/11/27 02:08:27;;;;;;;;;;;21.70;69.30;;;;;;1566488;74;675;-64
2022/11/27 02:10:48;;;;;;;;;;;21.70;69.30;;;;;;1565340;74;770;-64
2022/11/27 02:12:52;;;;;;;;;;;21.70;69.20;;;;;;1566436;74;1927;-65
2022/11/27 02:14:56;;;;;;;;;;;21.70;69.20;;;;;;1566417;74;1164;-65
2022/11/27 02:16:59;;;;;;;;;;;21.70;69.20;;;;;;1567149;74;818;-64
2022/11/27 02:19:08;;;;;;;;;;;21.70;69.30;;;;;;1560231;74;985;-66
2022/11/27 02:21:12;;;;;;;;;;;21.70;69.30;;;;;;1552749;74;2746;-66
2022/11/27 02:23:15;;;;;;;;;;;21.70;69.20;;;;;;1559132;74;1037;-65
2022/11/27 02:25:19;;;;;;;;;;;21.70;69.30;;;;;;1563089;74;1089;-66
2022/11/27 02:27:39;;;;;;;;;;;21.70;69.30;;;;;;1565686;74;756;-64
2022/11/27 02:29:41;;;;;;;;;;;21.70;69.30;;;;;;1565785;76;674;-65
2022/11/27 02:31:44;;;;;;;;;;;21.70;69.20;;;;;;1566810;74;1927;-66
2022/11/27 02:33:48;;;;;;;;;;;21.70;69.40;;;;;;1566533;74;681;-65
2022/11/27 02:35:51;;;;;;;;;;;21.70;69.30;;;;;;1567544;76;1138;-64
2022/11/27 02:37:54;;;;;;;;;;;21.70;69.30;;;;;;1561690;74;648;-65
2022/11/27 02:40:01;;;;;;;;;;;21.70;69.30;;;;;;1555874;74;718;-67
2022/11/27 02:42:05;;;;;;;;;;;21.60;69.30;;;;;;1567167;74;667;-67
2022/11/27 02:44:07;;;;;;;;;;;21.60;69.30;;;;;;1566510;74;1789;-65
2022/11/27 02:46:09;;;;;;;;;;;21.70;69.40;;;;;;1565425;74;791;-65
2022/11/27 02:48:11;;;;;;;;;;;21.70;69.30;;;;;;1567128;74;642;-65
2022/11/27 02:50:18;;;;;;;;;;;21.70;69.30;;;;;;1566942;76;619;-66
2022/11/27 02:52:20;;;;;;;;;;;21.60;69.30;;;;;;1567320;74;1957;-65
2022/11/27 02:54:23;;;;;;;;;;;21.70;69.30;;;;;;1566736;74;1164;-67
2022/11/27 02:56:26;;;;;;;;;;;21.70;69.40;;;;;;1566377;74;667;-65
2022/11/27 02:58:27;;;;;;;;;;;21.60;69.30;;;;;;1566732;74;868;-65
2022/11/27 03:00:29;;;;;;;;;;;21.70;69.40;;;;;;1559297;74;1654;-64
2022/11/27 03:02:33;;;;;;;;;;;21.70;69.20;;;;;;1558263;74;751;-64
2022/11/27 03:04:36;;;;;;;;;;;21.60;69.10;;;;;;1563367;74;1790;-65
2022/11/27 03:06:43;;;;;;;;;;;21.70;69.20;;;;;;1564103;74;682;-65
2022/11/27 03:08:53;;;;;;;;;;;21.60;68.90;;;;;;1566396;74;1826;-67
2022/11/27 03:11:06;;;;;;;;;;;21.70;69.10;;;;;;1559752;74;704;-66
2022/11/27 03:13:08;;;;;;;;;;;21.60;69.10;;;;;;1566818;74;1931;-65
2022/11/27 03:15:10;;;;;;;;;;;21.60;69.30;;;;;;1565908;74;1136;-65
2022/11/27 03:17:17;;;;;;;;;;;21.70;69.40;;;;;;1562867;74;784;-65
2022/11/27 03:19:26;;;;;;;;;;;21.60;69.50;;;;;;1556258;74;696;-65
2022/11/27 03:21:29;;;;;;;;;;;21.70;69.50;;;;;;1560372;74;698;-65
2022/11/27 03:23:31;;;;;;;;;;;21.70;69.80;;;;;;1560056;74;622;-64
2022/11/27 03:25:33;;;;;;;;;;;21.70;69.80;;;;;;1565565;74;1136;-64
2022/11/27 03:27:42;;;;;;;;;;;21.60;69.80;;;;;;1565693;74;696;-64
2022/11/27 03:29:46;;;;;;;;;;;21.70;69.90;;;;;;1567352;74;604;-63
2022/11/27 03:31:47;;;;;;;;;;;21.70;70.10;;;;;;1558768;76;1942;-65
2022/11/27 03:33:49;;;;;;;;;;;21.70;70.10;;;;;;1565027;74;676;-63
2022/11/27 03:35:52;;;;;;;;;;;21.70;70.00;;;;;;1562012;74;1134;-65
2022/11/27 03:37:54;;;;;;;;;;;21.70;70.00;;;;;;1558478;74;712;-65
2022/11/27 03:39:55;;;;;;;;;;;21.80;70.10;;;;;;1566848;74;852;-64
2022/11/27 03:41:59;;;;;;;;;;;21.80;70.00;;;;;;1565262;76;713;-64
2022/11/27 03:44:05;;;;;;;;;;;21.80;70.00;;;;;;1565314;74;1773;-64
2022/11/27 03:46:09;;;;;;;;;;;21.70;69.80;;;;;;1565321;74;780;-64
2022/11/27 03:48:15;;;;;;;;;;;21.80;70.00;;;;;;1565459;74;1449;-64
2022/11/27 03:50:34;;;;;;;;;;;21.80;70.00;;;;;;1563090;74;1515;-65
2022/11/27 03:52:37;;;;;;;;;;;21.80;70.00;;;;;;1565515;74;1990;-65
2022/11/27 03:54:50;;;;;;;;;;;21.80;69.90;;;;;;1565496;74;2141;-64
2022/11/27 03:56:54;;;;;;;;;;;21.80;69.80;;;;;;1567788;74;1660;-65
2022/11/27 03:58:57;;;;;;;;;;;21.80;69.70;;;;;;1562308;74;1934;-65
2022/11/27 04:00:59;;;;;;;;;;;21.80;69.60;;;;;;1566107;74;743;-64
2022/11/27 04:03:01;;;;;;;;;;;21.80;69.60;;;;;;1563350;76;714;-65
2022/11/27 04:05:03;;;;;;;;;;;21.90;69.70;;;;;;1538647;76;1144;-65
2022/11/27 04:07:05;;;;;;;;;;;21.90;69.60;;;;;;1565366;74;714;-64
2022/11/27 04:09:07;;;;;;;;;;;21.90;69.60;;;;;;1566668;74;717;-65
2022/11/27 04:11:08;;;;;;;;;;;21.90;69.50;;;;;;1567018;74;720;-63
2022/11/27 04:13:10;;;;;;;;;;;21.90;69.50;;;;;;1565836;74;1927;-65
2022/11/27 04:15:12;;;;;;;;;;;21.90;69.40;;;;;;1564286;74;1124;-65
2022/11/27 04:17:14;;;;;;;;;;;22.00;69.40;;;;;;1563086;74;755;-64
2022/11/27 04:19:16;;;;;;;;;;;22.00;69.40;;;;;;1571679;74;669;-66
2022/11/27 04:21:18;;;;;;;;;;;22.00;69.40;;;;;;1567447;74;737;-65
2022/11/27 04:23:20;;;;;;;;;;;22.00;69.30;;;;;;1565411;74;711;-65
2022/11/27 04:25:22;;;;;;;;;;;22.00;69.20;;;;;;1567030;74;1139;-65
2022/11/27 04:27:23;;;;;;;;;;;22.00;69.20;;;;;;1565907;74;787;-66
2022/11/27 04:29:25;;;;;;;;;;;22.00;69.20;;;;;;1565085;74;708;-65
2022/11/27 04:31:27;;;;;;;;;;;22.00;69.20;;;;;;1561987;74;757;-66
2022/11/27 04:33:29;;;;;;;;;;;22.00;69.10;;;;;;1553754;74;1942;-62
2022/11/27 04:35:31;;;;;;;;;;;22.00;69.20;;;;;;1563807;74;1180;-65
2022/11/27 04:37:33;;;;;;;;;;;22.00;69.30;;;;;;1561582;74;800;-65
2022/11/27 04:39:35;;;;;;;;;;;22.00;69.20;;;;;;1568296;74;655;-65
2022/11/27 04:41:36;;;;;;;;;;;22.00;69.30;;;;;;1567597;74;736;-67
2022/11/27 04:43:38;;;;;;;;;;;22.00;69.30;;;;;;1566908;74;703;-65
2022/11/27 04:45:40;;;;;;;;;;;22.00;69.10;;;;;;1566813;74;1196;-65
2022/11/27 04:47:42;;;;;;;;;;;22.00;69.00;;;;;;1565850;74;702;-65
2022/11/27 04:49:44;;;;;;;;;;;22.10;69.00;;;;;;1565866;74;786;-65
2022/11/27 04:51:46;;;;;;;;;;;22.00;68.90;;;;;;1570036;74;1303;-65
2022/11/27 04:53:48;;;;;;;;;;;22.10;68.90;;;;;;1572069;74;2033;-65
2022/11/27 04:55:51;;;;;;;;;;;22.00;68.70;;;;;;1553684;74;1145;-67
2022/11/27 04:57:53;;;;;;;;;;;22.00;68.60;;;;;;1554557;74;658;-65
2022/11/27 04:59:55;;;;;;;;;;;22.00;68.50;;;;;;1568120;74;670;-66
2022/11/27 05:01:56;;;;;;;;;;;22.00;68.60;;;;;;1568409;74;743;-65
2022/11/27 05:03:58;;;;;;;;;;;22.10;68.60;;;;;;1553025;76;632;-66
2022/11/27 05:06:00;;;;;;;;;;;22.10;68.60;;;;;;1559507;76;1113;-65
2022/11/27 05:08:02;;;;;;;;;;;22.00;68.50;;;;;;1553147;74;702;-64
2022/11/27 05:10:06;;;;;;;;;;;22.10;68.80;;;;;;1566501;74;651;-65
2022/11/27 05:12:07;;;;;;;;;;;22.10;68.80;;;;;;1566258;74;1926;-65
2022/11/27 05:14:16;;;;;;;;;;;22.10;68.70;;;;;;1560921;74;1137;-65
2022/11/27 05:16:18;;;;;;;;;;;22.10;68.60;;;;;;1560152;74;753;-65
2022/11/27 05:18:20;;;;;;;;;;;22.10;68.90;;;;;;1571891;74;658;-65
2022/11/27 05:20:22;;;;;;;;;;;22.10;69.00;;;;;;1566742;74;817;-65
2022/11/27 05:22:24;;;;;;;;;;;22.10;68.90;;;;;;1565737;74;693;-66
2022/11/27 05:24:26;;;;;;;;;;;22.10;68.90;;;;;;1564320;74;1097;-64
2022/11/27 05:26:28;;;;;;;;;;;22.10;69.00;;;;;;1566940;74;798;-66
2022/11/27 05:28:30;;;;;;;;;;;22.20;69.10;;;;;;1566353;74;855;-65
2022/11/27 05:30:32;;;;;;;;;;;22.10;69.20;;;;;;1564223;76;674;-65
2022/11/27 05:32:34;;;;;;;;;;;22.10;69.20;;;;;;1567718;74;1934;-65
2022/11/27 05:34:36;;;;;;;;;;;22.10;69.20;;;;;;1568123;74;1143;-65
2022/11/27 05:36:37;;;;;;;;;;;22.10;69.20;;;;;;1563617;74;864;-64
2022/11/27 05:38:39;;;;;;;;;;;22.10;69.30;;;;;;1557906;74;644;-67
2022/11/27 05:40:41;;;;;;;;;;;22.10;69.30;;;;;;1561106;74;573;-67
2022/11/27 05:42:43;;;;;;;;;;;22.10;69.10;;;;;;1566571;76;625;-67
2022/11/27 05:44:45;;;;;;;;;;;22.10;69.20;;;;;;1563503;74;1144;-65
2022/11/27 05:46:47;;;;;;;;;;;22.10;69.20;;;;;;1563871;74;688;-67
2022/11/27 05:48:49;;;;;;;;;;;22.10;69.20;;;;;;1564029;74;1600;-66
2022/11/27 05:50:51;;;;;;;;;;;22.10;69.20;;;;;;1561397;74;665;-63
2022/11/27 05:52:53;;;;;;;;;;;22.10;69.20;;;;;;1557408;74;1956;-65
2022/11/27 05:54:55;;;;;;;;;;;22.20;69.30;;;;;;1564591;74;1190;-67
2022/11/27 05:56:57;;;;;;;;;;;22.10;69.20;;;;;;1567280;74;660;-66
2022/11/27 05:58:59;;;;;;;;;;;22.10;69.10;;;;;;1565884;74;663;-65
2022/11/27 06:01:00;;;;;;;;;;;22.10;69.10;;;;;;1562419;74;695;-65
2022/11/27 06:03:02;;;;;;;;;;;22.10;69.00;;;;;;1556300;74;650;-65
2022/11/27 06:05:04;;;;;;;;;;;22.10;69.00;;;;;;1563522;74;1129;-65
2022/11/27 06:07:06;;;;;;;;;;;22.10;69.10;;;;;;1559707;74;757;-65
2022/11/27 06:09:08;;;;;;;;;;;22.10;69.10;;;;;;1565623;74;643;-65
2022/11/27 06:11:11;;;;;;;;;;;22.10;69.20;;;;;;1566551;76;716;-65
2022/11/27 06:13:13;;;;;;;;;;;22.10;69.00;;;;;;1567280;74;1926;-65
2022/11/27 06:15:15;;;;;;;;;;;22.10;69.10;;;;;;1566342;74;1120;-66
2022/11/27 06:17:17;;;;;;;;;;;22.10;69.10;;;;;;1566189;74;797;-65
2022/11/27 06:19:19;;;;;;;;;;;22.10;69.20;;;;;;1567826;74;688;-65
2022/11/27 06:21:21;;;;;;;;;;;22.10;69.20;;;;;;1567232;76;723;-66
2022/11/27 06:23:23;;;;;;;;;;;22.10;69.10;;;;;;1564051;74;719;-65
2022/11/27 06:25:25;;;;;;;;;;;22.10;69.10;;;;;;1562779;74;1160;-65
2022/11/27 06:27:28;;;;;;;;;;;22.10;69.00;;;;;;1564677;74;821;-65
2022/11/27 06:29:30;;;;;;;;;;;22.10;69.10;;;;;;1562648;74;1029;-62
2022/11/27 06:31:32;;;;;;;;;;;22.10;69.10;;;;;;1563129;74;796;-65
2022/11/27 06:33:34;;;;;;;;;;;22.10;69.10;;;;;;1567415;74;1918;-65
2022/11/27 06:35:36;;;;;;;;;;;22.10;69.00;;;;;;1560280;74;1168;-66
2022/11/27 06:37:38;;;;;;;;;;;22.10;69.10;;;;;;1564563;74;657;-65
2022/11/27 06:39:40;;;;;;;;;;;22.10;69.10;;;;;;1565935;74;740;-64
2022/11/27 06:41:42;;;;;;;;;;;22.10;69.00;;;;;;1560506;74;676;-64
2022/11/27 06:43:44;;;;;;;;;;;22.10;69.00;;;;;;1556843;74;639;-66
2022/11/27 06:45:47;;;;;;;;;;;22.10;69.30;;;;;;1562021;74;1762;-65
2022/11/27 06:47:49;;;;;;;;;;;22.20;69.50;;;;;;1558012;74;1938;-67
2022/11/27 06:49:51;;;;;;;;;;;22.10;69.60;;;;;;1551810;74;661;-65
2022/11/27 06:51:53;;;;;;;;;;;22.10;69.20;;;;;;1545507;74;706;-64
2022/11/27 06:53:55;;;;;;;;;;;22.20;68.90;;;;;;1572251;74;1954;-64
2022/11/27 06:55:57;;;;;;;;;;;22.10;68.60;;;;;;1561549;74;1149;-65
2022/11/27 06:57:58;;;;;;;;;;;22.10;68.40;;;;;;1565163;74;840;-65
2022/11/27 07:00:00;;;;;;;;;;;22.20;68.30;;;;;;1558861;74;669;-65
2022/11/27 07:02:02;;;;;;;;;;;22.20;68.20;;;;;;1565552;74;745;-66
2022/11/27 07:04:04;;;;;;;;;;;22.20;68.20;;;;;;1567028;74;679;-65
2022/11/27 07:06:07;;;;;;;;;;;22.10;68.10;;;;;;1562638;74;1149;-64
2022/11/27 07:08:09;;;;;;;;;;;22.20;68.10;;;;;;1560261;74;743;-64
2022/11/27 07:10:11;;;;;;;;;;;22.20;67.90;;;;;;1561593;74;712;-65
2022/11/27 07:12:13;;;;;;;;;;;22.20;67.90;;;;;;1561452;74;787;-67
2022/11/27 07:14:15;;;;;;;;;;;22.20;67.90;;;;;;1557984;74;1958;-64
2022/11/27 07:16:17;;;;;;;;;;;22.30;67.90;;;;;;1564913;74;719;-67
2022/11/27 07:18:19;;;;;;;;;;;22.20;67.70;;;;;;1556119;74;716;-62
2022/11/27 07:20:21;;;;;;;;;;;22.20;67.70;;;;;;1559554;74;759;-65
2022/11/27 07:22:22;;;;;;;;;;;22.20;67.60;;;;;;1565333;74;669;-66
2022/11/27 07:24:44;;;;;;;;;;;22.20;67.80;;;;;;1566523;74;1152;-64
2022/11/27 07:26:46;;;;;;;;;;;22.20;67.60;;;;;;1602985;73;544;-60
2022/11/27 07:28:47;;;;;;;;;;;22.20;67.50;;;;;;1601519;73;1184;-60
2022/11/27 07:30:57;;;;;;;;;;;22.30;67.50;;;;;;1601307;73;655;-59
2022/11/27 07:32:59;;;;;;;;;;;22.20;67.40;;;;;;1591069;73;1923;-59
2022/11/27 07:35:01;;;;;;;;;;;22.30;67.70;;;;;;1588969;73;663;-59
2022/11/27 07:37:03;;;;;;;;;;;22.30;67.70;;;;;;1595106;73;598;-61
2022/11/27 07:39:04;;;;;;;;;;;22.20;67.50;;;;;;1597588;73;1104;-59
2022/11/27 07:41:06;;;;;;;;;;;22.20;67.70;;;;;;1590165;73;1449;-60
2022/11/27 07:43:08;;;;;;;;;;;22.30;67.90;;;;;;1600528;73;604;-60
2022/11/27 07:45:10;;;;;;;;;;;22.30;68.00;;;;;;1595701;73;699;-59
2022/11/27 07:47:12;;;;;;;;;;;22.30;67.90;;;;;;1597832;73;643;-58
2022/11/27 07:49:14;;;;;;;;;;;22.30;68.00;;;;;;1599880;73;1116;-59
2022/11/27 07:51:17;;;;;;;;;;;22.30;67.90;;;;;;1597261;73;711;-61
2022/11/27 07:53:18;;;;;;;;;;;22.30;67.80;;;;;;1601407;73;1922;-59
2022/11/27 07:55:20;;;;;;;;;;;22.20;67.90;;;;;;1602116;73;1305;-59
2022/11/27 07:57:22;;;;;;;;;;;22.30;67.90;;;;;;1597585;73;649;-61
2022/11/27 07:59:24;;;;;;;;;;;22.30;67.80;;;;;;1599121;73;1133;-59
2022/11/27 08:01:26;;;;;;;;;;;22.30;67.90;;;;;;1598508;73;664;-61
2022/11/27 08:03:28;;;;;;;;;;;22.30;67.80;;;;;;1595405;73;635;-59
2022/11/27 08:05:30;;;;;;;;;;;22.40;67.80;;;;;;1582219;73;686;-59
2022/11/27 08:07:31;;;;;;;;;;;22.30;67.90;;;;;;1548817;75;676;-59
2022/11/27 08:09:33;;;;;;;;;;;22.40;67.90;;;;;;1557980;75;1517;-60
2022/11/27 08:11:35;;;;;;;;;;;22.30;67.70;;;;;;1589442;73;711;-61
2022/11/27 08:13:37;;;;;;;;;;;22.40;67.60;;;;;;1603821;74;1932;-60
2022/11/27 08:15:39;;;;;;;;;;;22.30;67.50;;;;;;1596986;73;777;-64
2022/11/27 08:17:41;;;;;;;;;;;22.30;67.40;;;;;;1593318;73;1131;-61
2022/11/27 08:19:43;;;;;;;;;;;22.40;67.30;;;;;;1598539;73;658;-59
2022/11/27 08:21:45;;;;;;;;;;;22.40;67.20;;;;;;1595391;73;701;-58
2022/11/27 08:23:46;;;;;;;;;;;22.30;67.10;;;;;;1593179;73;1542;-59
2022/11/27 08:25:48;;;;;;;;;;;22.30;67.10;;;;;;1598775;73;804;-61
2022/11/27 08:27:50;;;;;;;;;;;22.30;67.00;;;;;;1605896;73;1116;-60
2022/11/27 08:29:52;;;;;;;;;;;22.20;66.70;;;;;;1595739;73;732;-60
2022/11/27 08:31:54;;;;;;;;;;;22.30;66.80;;;;;;1598068;73;734;-60
2022/11/27 08:33:56;;;;;;;;;;;22.30;66.80;;;;;;1599460;73;1940;-59
2022/11/27 08:35:58;;;;;;;;;;;22.20;66.60;;;;;;1594627;73;691;-59
2022/11/27 08:37:59;;;;;;;;;;;22.30;66.60;;;;;;1603444;73;1416;-59
2022/11/27 08:40:02;;;;;;;;;;;22.20;66.50;;;;;;1595454;73;691;-60
2022/11/27 08:42:04;;;;;;;;;;;22.20;66.50;;;;;;1604714;73;715;-60
2022/11/27 08:44:05;;;;;;;;;;;22.20;66.50;;;;;;1602628;73;630;-59
2022/11/27 08:46:07;;;;;;;;;;;22.30;66.50;;;;;;1593694;73;642;-60
2022/11/27 08:48:09;;;;;;;;;;;22.20;66.40;;;;;;1592962;73;1265;-59
2022/11/27 08:50:11;;;;;;;;;;;22.20;66.40;;;;;;1604280;74;527;-59
2022/11/27 08:52:13;;;;;;;;;;;22.30;66.40;;;;;;1592583;73;1596;-59
2022/11/27 08:54:15;;;;;;;;;;;22.20;66.30;;;;;;1596276;73;1929;-59
2022/11/27 08:56:18;;;;;;;;;;;22.10;66.30;;;;;;1594955;73;646;-59
2022/11/27 08:58:19;;;;;;;;;;;22.20;66.30;;;;;;1605250;73;1159;-59
2022/11/27 09:00:21;;;;;;;;;;;22.20;66.30;;;;;;1585949;74;763;-59
2022/11/27 09:02:23;;;;;;;;;;;22.10;66.30;;;;;;1596302;73;664;-61
2022/11/27 09:04:25;;;;;;;;;;;22.10;66.30;;;;;;1585114;73;669;-60
2022/11/27 09:06:28;;;;;;;;;;;22.20;66.30;;;;;;1599123;73;567;-60
2022/11/27 09:08:30;;;;;;;;;;;22.20;66.20;;;;;;1600540;73;1104;-61
2022/11/27 09:10:32;;;;;;;;;;;22.10;66.30;;;;;;1597692;73;742;-60
2022/11/27 09:12:34;;;;;;;;;;;22.20;66.10;;;;;;1602419;73;646;-60
2022/11/27 09:14:36;;;;;;;;;;;22.20;66.10;;;;;;1603026;73;1932;-61
2022/11/27 09:16:38;;;;;;;;;;;22.20;66.20;;;;;;1594047;73;649;-61
2022/11/27 09:18:40;;;;;;;;;;;22.20;66.20;;;;;;1600419;73;1096;-60
2022/11/27 09:20:42;;;;;;;;;;;22.20;66.10;;;;;;1598448;73;677;-60
2022/11/27 09:22:44;;;;;;;;;;;22.20;66.10;;;;;;1600382;73;674;-61
2022/11/27 09:24:46;;;;;;;;;;;22.20;66.10;;;;;;1598290;73;679;-61
2022/11/27 09:26:48;;;;;;;;;;;22.20;66.10;;;;;;1599614;73;718;-60
2022/11/27 09:28:49;;;;;;;;;;;22.20;66.10;;;;;;1596926;73;1133;-60
2022/11/27 09:30:55;;;;;;;;;;;22.20;66.00;;;;;;1593486;73;564;-61
2022/11/27 09:32:57;;;;;;;;;;;22.20;66.00;;;;;;1595991;73;606;-60
2022/11/27 09:34:59;;;;;;;;;;;22.10;66.10;;;;;;1597658;73;1958;-60
2022/11/27 09:37:01;;;;;;;;;;;22.20;66.10;;;;;;1591624;73;682;-60
2022/11/27 09:39:03;;;;;;;;;;;22.30;66.10;;;;;;1594317;73;1101;-60
2022/11/27 09:41:12;;;;;;;;;;;22.20;66.10;;;;;;1596188;73;803;-60
2022/11/27 09:43:14;;;;;;;;;;;22.20;66.00;;;;;;1590105;73;683;-60
2022/11/27 09:45:16;;;;;;;;;;;22.30;66.10;;;;;;1592988;73;617;-60
2022/11/27 09:47:23;;;;;;;;;;;22.30;66.00;;;;;;1594206;73;678;-60
2022/11/27 09:49:35;;;;;;;;;;;22.30;66.00;;;;;;1601987;73;1916;-60
2022/11/27 09:51:39;;;;;;;;;;;22.20;65.90;;;;;;1581035;73;1368;-60
2022/11/27 09:53:57;;;;;;;;;;;22.20;65.90;;;;;;1546388;75;672;-60
2022/11/27 09:56:02;;;;;;;;;;;22.20;65.90;;;;;;1591377;73;664;-60
2022/11/27 09:58:20;;;;;;;;;;;22.20;65.90;;;;;;1586449;73;1165;-60
2022/11/27 10:00:22;;;;;;;;;;;22.20;65.90;;;;;;1593904;73;634;-61
2022/11/27 10:02:25;;;;;;;;;;;22.30;66.00;;;;;;1595882;73;1321;-60
2022/11/27 10:04:27;;;;;;;;;;;22.20;65.90;;;;;;1589852;73;1032;-59
2022/11/27 10:06:36;;;;;;;;;;;22.20;65.90;;;;;;1593810;73;662;-59
2022/11/27 10:08:40;;;;;;;;;;;22.20;65.90;;;;;;1588692;73;1738;-60
2022/11/27 10:10:45;;;;;;;;;;;22.30;66.00;;;;;;1601922;73;614;-59
2022/11/27 10:12:54;;;;;;;;;;;22.20;65.90;;;;;;1595239;73;706;-60
2022/11/27 10:14:58;;;;;;;;;;;22.30;66.00;;;;;;1595630;73;1932;-60
2022/11/27 10:17:19;;;;;;;;;;;22.20;65.90;;;;;;1591477;73;770;-60
2022/11/27 10:19:25;;;;;;;;;;;22.30;66.00;;;;;;1599435;73;1096;-61
2022/11/27 10:21:32;;;;;;;;;;;22.30;66.00;;;;;;1599882;73;1838;-60
2022/11/27 10:23:35;;;;;;;;;;;22.30;66.00;;;;;;1594055;73;1429;-61
2022/11/27 10:25:42;;;;;;;;;;;22.30;66.00;;;;;;1547696;75;1766;-60
2022/11/27 10:27:45;;;;;;;;;;;22.30;65.90;;;;;;1597407;73;1137;-60
2022/11/27 10:29:48;;;;;;;;;;;22.40;65.90;;;;;;1597173;73;1445;-60
2022/11/27 10:31:51;;;;;;;;;;;22.40;65.90;;;;;;1598260;73;738;-60
2022/11/27 10:33:54;;;;;;;;;;;22.40;65.80;;;;;;1581565;73;720;-60
2022/11/27 10:35:56;;;;;;;;;;;22.40;65.70;;;;;;1614458;73;1927;-60
2022/11/27 10:38:08;;;;;;;;;;;22.40;65.70;;;;;;1594393;73;1132;-60
2022/11/27 10:40:12;;;;;;;;;;;22.40;65.60;;;;;;1562693;74;1125;-60
2022/11/27 10:42:19;;;;;;;;;;;22.40;65.60;;;;;;1596589;73;676;-59
2022/11/27 10:44:26;;;;;;;;;;;22.50;65.70;;;;;;1582836;73;1707;-59
2022/11/27 10:46:29;;;;;;;;;;;22.50;65.60;;;;;;1597202;73;678;-59
2022/11/27 10:48:32;;;;;;;;;;;22.50;65.60;;;;;;1591840;73;1157;-59
2022/11/27 10:50:34;;;;;;;;;;;22.50;65.50;;;;;;1600587;73;622;-59
2022/11/27 10:52:36;;;;;;;;;;;22.50;65.50;;;;;;1604973;73;668;-59
2022/11/27 10:54:37;;;;;;;;;;;22.50;65.40;;;;;;1603108;73;1926;-59
2022/11/27 10:56:58;;;;;;;;;;;22.50;65.40;;;;;;1587780;73;649;-59
2022/11/27 10:59:03;;;;;;;;;;;22.50;65.40;;;;;;1592672;73;1175;-60
2022/11/27 11:01:09;;;;;;;;;;;22.50;65.40;;;;;;1605804;73;657;-60
2022/11/27 11:03:15;;;;;;;;;;;22.50;65.50;;;;;;1596512;73;563;-59
2022/11/27 11:05:21;;;;;;;;;;;22.60;65.60;;;;;;1602042;73;692;-59
2022/11/27 11:07:25;;;;;;;;;;;22.60;65.80;;;;;;1594656;73;649;-60
2022/11/27 11:09:30;;;;;;;;;;;22.50;65.80;;;;;;1594981;73;1606;-59
2022/11/27 11:11:32;;;;;;;;;;;22.50;66.00;;;;;;1602080;73;1498;-59
2022/11/27 11:13:42;;;;;;;;;;;22.60;66.10;;;;;;1595641;73;667;-60
2022/11/27 11:15:59;;;;;;;;;;;22.60;66.20;;;;;;1600246;73;1932;-60
2022/11/27 11:18:01;;;;;;;;;;;22.60;66.30;;;;;;1600618;73;1157;-60
2022/11/27 11:20:21;;;;;;;;;;;22.60;66.40;;;;;;1602135;73;667;-61
2022/11/27 11:22:23;;;;;;;;;;;22.60;66.50;;;;;;1608581;73;696;-61
2022/11/27 11:24:27;;;;;;;;;;;22.60;66.60;;;;;;1591810;73;662;-60
2022/11/27 11:26:29;;;;;;;;;;;22.60;66.70;;;;;;1605002;73;1529;-60
2022/11/27 11:28:31;;;;;;;;;;;22.60;66.80;;;;;;1600819;73;1139;-61
2022/11/27 11:30:33;;;;;;;;;;;22.60;66.90;;;;;;1571906;74;628;-60
2022/11/27 11:32:36;;;;;;;;;;;22.70;67.00;;;;;;1605274;73;717;-61
2022/11/27 11:34:39;;;;;;;;;;;22.60;67.10;;;;;;1600340;73;1929;-60
2022/11/27 11:36:41;;;;;;;;;;;22.60;67.20;;;;;;1600511;73;1743;-61
2022/11/27 11:38:44;;;;;;;;;;;22.70;67.40;;;;;;1593742;73;1167;-60
2022/11/27 11:40:48;;;;;;;;;;;22.70;67.40;;;;;;1593982;73;1496;-61
2022/11/27 11:42:59;;;;;;;;;;;22.70;67.30;;;;;;1601075;73;1799;-60
2022/11/27 11:45:06;;;;;;;;;;;22.70;67.40;;;;;;1586650;73;617;-61
2022/11/27 11:47:09;;;;;;;;;;;22.80;67.30;;;;;;1594056;73;1032;-59
2022/11/27 11:49:19;;;;;;;;;;;22.70;67.30;;;;;;1600491;73;1515;-59
2022/11/27 11:51:29;;;;;;;;;;;22.70;67.20;;;;;;1589081;73;1875;-60
2022/11/27 11:53:38;;;;;;;;;;;22.70;67.20;;;;;;1590585;73;1359;-60
2022/11/27 11:55:41;;;;;;;;;;;22.80;67.20;;;;;;1593473;73;1929;-60
2022/11/27 11:57:48;;;;;;;;;;;22.70;67.20;;;;;;1589620;73;1120;-61
2022/11/27 11:59:57;;;;;;;;;;;22.70;67.20;;;;;;1594865;73;2300;-60
2022/11/27 12:02:01;;;;;;;;;;;22.70;67.20;;;;;;1592556;73;655;-60
2022/11/27 12:04:21;;;;;;;;;;;22.70;67.30;;;;;;1600436;73;1429;-60
2022/11/27 12:06:27;;;;;;;;;;;22.80;67.20;;;;;;1596042;73;668;-61
2022/11/27 12:08:37;;;;;;;;;;;22.70;67.20;;;;;;1589651;73;1386;-61
2022/11/27 12:10:49;;;;;;;;;;;22.80;67.20;;;;;;1597046;73;697;-61
2022/11/27 12:13:02;;;;;;;;;;;22.70;67.30;;;;;;1602095;73;700;-60
2022/11/27 12:15:05;;;;;;;;;;;22.80;67.30;;;;;;1594409;73;1898;-62
2022/11/27 12:17:26;;;;;;;;;;;22.80;67.40;;;;;;1598010;73;1835;-61